createdAt,value
2023-05-19T00:00:31.470Z,10.84
2023-05-19T00:01:31.319Z,10.82
2023-05-19T00:02:31.375Z,10.81
2023-05-19T00:03:31.364Z,10.79
2023-05-19T00:04:31.320Z,10.81
2023-05-19T00:05:31.334Z,10.81
2023-05-19T00:06:31.268Z,10.82
2023-05-19T00:07:31.286Z,10.82
2023-05-19T00:08:31.247Z,10.82
2023-05-19T00:09:31.258Z,10.82
2023-05-19T00:10:31.459Z,10.82
2023-05-19T00:11:31.217Z,10.82
2023-05-19T00:12:31.188Z,10.81
2023-05-19T00:13:31.203Z,10.73
2023-05-19T00:14:31.177Z,10.61
2023-05-19T00:15:31.328Z,10.55
2023-05-19T00:16:31.281Z,10.56
2023-05-19T00:17:31.170Z,10.53
2023-05-19T00:18:31.147Z,10.52
2023-05-19T00:19:31.134Z,10.51
2023-05-19T00:20:31.297Z,10.51
2023-05-19T00:21:31.097Z,10.47
2023-05-19T00:22:31.082Z,10.38
2023-05-19T00:23:31.090Z,10.33
2023-05-19T00:24:31.080Z,10.23
2023-05-19T00:25:31.026Z,10.20
2023-05-19T00:26:31.021Z,10.17
2023-05-19T00:27:31.037Z,10.17
2023-05-19T00:28:31.040Z,10.17
2023-05-19T00:29:31.013Z,10.22
2023-05-19T00:30:31.325Z,10.26
2023-05-19T00:31:30.992Z,10.29
2023-05-19T00:32:31.009Z,10.30
2023-05-19T00:33:30.954Z,10.33
2023-05-19T00:34:30.956Z,10.36
2023-05-19T00:35:30.952Z,10.40
2023-05-19T00:36:30.953Z,10.40
2023-05-19T00:37:30.904Z,10.41
2023-05-19T00:38:30.905Z,10.42
2023-05-19T00:39:30.897Z,10.42
2023-05-19T00:40:31.237Z,10.44
2023-05-19T00:41:30.863Z,10.42
2023-05-19T00:42:30.853Z,10.44
2023-05-19T00:43:30.829Z,10.45
2023-05-19T00:44:30.837Z,10.45
2023-05-19T00:45:30.805Z,10.44
2023-05-19T00:46:30.907Z,10.42
2023-05-19T00:47:30.848Z,10.44
2023-05-19T00:48:30.770Z,10.42
2023-05-19T00:49:30.796Z,10.44
2023-05-19T00:50:31.155Z,10.45
2023-05-19T00:51:30.771Z,10.44
2023-05-19T00:52:30.743Z,10.45
2023-05-19T00:53:30.731Z,10.45
2023-05-19T00:54:30.761Z,10.47
2023-05-19T00:55:30.678Z,10.48
2023-05-19T00:56:30.724Z,10.47
2023-05-19T00:57:30.711Z,10.45
2023-05-19T00:58:30.739Z,10.45
2023-05-19T00:59:30.697Z,10.44
2023-05-19T01:00:30.935Z,10.41
2023-05-19T01:01:30.664Z,10.38
2023-05-19T01:02:30.798Z,10.34
2023-05-19T01:03:30.778Z,10.34
2023-05-19T01:04:30.616Z,10.34
2023-05-19T01:05:30.629Z,10.34
2023-05-19T01:06:30.579Z,10.30
2023-05-19T01:07:30.564Z,10.29
2023-05-19T01:08:30.542Z,10.29
2023-05-19T01:09:30.550Z,10.27
2023-05-19T01:10:30.648Z,10.25
2023-05-19T01:11:30.524Z,10.22
2023-05-19T01:12:30.529Z,10.20
2023-05-19T01:13:30.519Z,10.20
2023-05-19T01:14:30.481Z,10.17
2023-05-19T01:15:30.473Z,10.14
2023-05-19T01:16:30.517Z,10.09
2023-05-19T01:17:30.543Z,10.04
2023-05-19T01:18:30.485Z,9.93
2023-05-19T01:19:30.415Z,9.78
2023-05-19T01:20:30.613Z,9.65
2023-05-19T01:21:30.406Z,9.57
2023-05-19T01:22:30.445Z,9.50
2023-05-19T01:23:30.361Z,9.48
2023-05-19T01:24:30.375Z,9.42
2023-05-19T01:25:30.357Z,9.47
2023-05-19T01:26:30.350Z,9.50
2023-05-19T01:27:30.342Z,9.53
2023-05-19T01:28:30.315Z,9.56
2023-05-19T01:29:30.308Z,9.58
2023-05-19T01:30:30.539Z,9.64
2023-05-19T01:31:30.333Z,9.65
2023-05-19T01:32:30.373Z,9.64
2023-05-19T01:33:30.278Z,9.64
2023-05-19T01:34:30.239Z,9.66
2023-05-19T01:35:30.265Z,9.65
2023-05-19T01:36:30.211Z,9.69
2023-05-19T01:37:30.205Z,9.71
2023-05-19T01:38:30.233Z,9.69
2023-05-19T01:39:30.200Z,9.71
2023-05-19T01:40:30.493Z,9.75
2023-05-19T01:41:30.163Z,9.79
2023-05-19T01:42:30.158Z,9.79
2023-05-19T01:43:30.155Z,9.79
2023-05-19T01:44:30.175Z,9.81
2023-05-19T01:45:30.113Z,9.83
2023-05-19T01:46:30.236Z,9.84
2023-05-19T01:47:30.104Z,9.86
2023-05-19T01:48:30.088Z,9.86
2023-05-19T01:49:30.092Z,9.86
2023-05-19T01:50:30.326Z,9.86
2023-05-19T01:51:30.078Z,9.84
2023-05-19T01:52:30.049Z,9.84
2023-05-19T01:53:30.021Z,9.86
2023-05-19T01:54:30.034Z,9.81
2023-05-19T01:55:30.051Z,9.75
2023-05-19T01:56:30.037Z,9.69
2023-05-19T01:57:30.004Z,9.69
2023-05-19T01:58:29.980Z,9.72
2023-05-19T01:59:29.960Z,9.75
2023-05-19T02:00:30.046Z,9.79
2023-05-19T02:01:30.013Z,9.81
2023-05-19T02:02:29.949Z,9.81
2023-05-19T02:03:29.944Z,9.84
2023-05-19T02:04:29.970Z,9.87
2023-05-19T02:05:29.897Z,9.89
2023-05-19T02:06:29.932Z,9.87
2023-05-19T02:07:29.876Z,9.89
2023-05-19T02:08:29.865Z,9.90
2023-05-19T02:09:29.856Z,9.91
2023-05-19T02:10:29.966Z,9.89
2023-05-19T02:11:29.856Z,9.89
2023-05-19T02:12:29.848Z,9.87
2023-05-19T02:13:29.841Z,9.84
2023-05-19T02:14:29.801Z,9.84
2023-05-19T02:15:29.808Z,9.78
2023-05-19T02:16:29.860Z,9.71
2023-05-19T02:17:29.813Z,9.61
2023-05-19T02:18:29.739Z,9.58
2023-05-19T02:19:29.835Z,9.60
2023-05-19T02:20:29.823Z,9.60
2023-05-19T02:21:29.716Z,9.64
2023-05-19T02:22:29.684Z,9.68
2023-05-19T02:23:29.688Z,9.71
2023-05-19T02:24:29.677Z,9.74
2023-05-19T02:25:29.693Z,9.75
2023-05-19T02:26:29.664Z,9.78
2023-05-19T02:27:29.638Z,9.78
2023-05-19T02:28:29.628Z,9.84
2023-05-19T02:29:29.626Z,9.84
2023-05-19T02:30:29.835Z,9.87
2023-05-19T02:31:29.634Z,9.86
2023-05-19T02:32:29.629Z,9.89
2023-05-19T02:33:29.571Z,9.89
2023-05-19T02:34:29.584Z,9.91
2023-05-19T02:35:29.540Z,9.90
2023-05-19T02:36:29.545Z,9.91
2023-05-19T02:37:29.577Z,9.91
2023-05-19T02:38:29.523Z,9.90
2023-05-19T02:39:29.523Z,9.91
2023-05-19T02:40:29.586Z,9.91
2023-05-19T02:41:29.530Z,9.91
2023-05-19T02:42:29.474Z,9.91
2023-05-19T02:43:29.434Z,9.90
2023-05-19T02:44:29.443Z,9.91
2023-05-19T02:45:29.443Z,9.93
2023-05-19T02:46:29.485Z,9.94
2023-05-19T02:47:29.434Z,9.94
2023-05-19T02:48:29.380Z,9.93
2023-05-19T02:49:29.386Z,9.91
2023-05-19T02:50:29.455Z,9.89
2023-05-19T02:51:29.360Z,9.87
2023-05-19T02:52:29.401Z,9.83
2023-05-19T02:53:29.319Z,9.83
2023-05-19T02:54:29.323Z,9.81
2023-05-19T02:55:29.298Z,9.78
2023-05-19T02:56:29.320Z,9.75
2023-05-19T02:57:29.310Z,9.72
2023-05-19T02:58:29.291Z,9.72
2023-05-19T02:59:29.302Z,9.69
2023-05-19T03:00:29.319Z,9.69
2023-05-19T03:01:29.314Z,9.68
2023-05-19T03:02:29.311Z,9.61
2023-05-19T03:03:29.316Z,9.58
2023-05-19T03:04:29.238Z,9.57
2023-05-19T03:05:29.220Z,9.58
2023-05-19T03:06:29.199Z,9.58
2023-05-19T03:07:29.169Z,9.60
2023-05-19T03:08:29.151Z,9.60
2023-05-19T03:09:29.186Z,9.60
2023-05-19T03:10:29.177Z,9.60
2023-05-19T03:11:29.172Z,9.61
2023-05-19T03:12:29.153Z,9.61
2023-05-19T03:13:29.119Z,9.65
2023-05-19T03:14:29.118Z,9.66
2023-05-19T03:15:29.080Z,9.66
2023-05-19T03:16:29.108Z,9.68
2023-05-19T03:17:29.127Z,9.66
2023-05-19T03:18:29.090Z,9.66
2023-05-19T03:19:29.047Z,9.68
2023-05-19T03:20:29.022Z,9.68
2023-05-19T03:21:29.025Z,9.66
2023-05-19T03:22:29.008Z,9.68
2023-05-19T03:23:28.984Z,9.66
2023-05-19T03:24:28.984Z,9.66
2023-05-19T03:25:28.980Z,9.68
2023-05-19T03:26:28.994Z,9.69
2023-05-19T03:27:29.007Z,9.69
2023-05-19T03:28:28.958Z,9.68
2023-05-19T03:29:28.965Z,9.68
2023-05-19T03:30:28.931Z,9.71
2023-05-19T03:31:28.896Z,9.69
2023-05-19T03:32:28.967Z,9.71
2023-05-19T03:33:29.006Z,9.69
2023-05-19T03:34:28.897Z,9.68
2023-05-19T03:35:28.878Z,9.69
2023-05-19T03:36:28.870Z,9.68
2023-05-19T03:37:28.853Z,9.66
2023-05-19T03:38:28.814Z,9.66
2023-05-19T03:39:28.817Z,9.65
2023-05-19T03:40:28.809Z,9.65
2023-05-19T03:41:28.806Z,9.64
2023-05-19T03:42:28.791Z,9.66
2023-05-19T03:43:28.769Z,9.68
2023-05-19T03:44:28.775Z,9.71
2023-05-19T03:45:28.753Z,9.74
2023-05-19T03:46:28.833Z,9.76
2023-05-19T03:47:28.765Z,9.79
2023-05-19T03:48:28.777Z,9.83
2023-05-19T03:49:28.693Z,9.84
2023-05-19T03:50:28.685Z,9.87
2023-05-19T03:51:28.705Z,9.89
2023-05-19T03:52:28.658Z,9.91
2023-05-19T03:53:28.666Z,9.93
2023-05-19T03:54:28.712Z,9.93
2023-05-19T03:55:28.645Z,9.96
2023-05-19T03:56:28.598Z,9.99
2023-05-19T03:57:28.625Z,10.01
2023-05-19T03:58:28.609Z,10.02
2023-05-19T03:59:28.608Z,10.07
2023-05-19T04:00:28.595Z,10.08
2023-05-19T04:01:28.559Z,10.09
2023-05-19T04:02:28.701Z,10.11
2023-05-19T04:03:28.608Z,10.12
2023-05-19T04:04:28.624Z,10.15
2023-05-19T04:05:28.523Z,10.15
2023-05-19T04:06:28.502Z,10.15
2023-05-19T04:07:28.539Z,10.15
2023-05-19T04:08:28.488Z,10.18
2023-05-19T04:09:28.488Z,10.17
2023-05-19T04:10:28.454Z,10.18
2023-05-19T04:11:28.447Z,10.14
2023-05-19T04:12:28.459Z,10.14
2023-05-19T04:13:28.443Z,10.11
2023-05-19T04:14:28.428Z,10.14
2023-05-19T04:15:28.470Z,10.15
2023-05-19T04:16:28.495Z,10.15
2023-05-19T04:17:28.412Z,10.18
2023-05-19T04:18:29.261Z,10.20
2023-05-19T04:19:28.451Z,10.25
2023-05-19T04:20:28.358Z,10.29
2023-05-19T04:21:28.338Z,10.33
2023-05-19T04:22:28.323Z,10.38
2023-05-19T04:23:28.298Z,10.38
2023-05-19T04:24:28.311Z,10.38
2023-05-19T04:25:28.365Z,10.38
2023-05-19T04:26:28.298Z,10.38
2023-05-19T04:27:28.268Z,10.36
2023-05-19T04:28:28.250Z,10.38
2023-05-19T04:29:28.253Z,10.38
2023-05-19T04:30:28.222Z,10.38
2023-05-19T04:31:28.283Z,10.40
2023-05-19T04:32:28.254Z,10.44
2023-05-19T04:33:28.207Z,10.45
2023-05-19T04:34:28.205Z,10.48
2023-05-19T04:35:28.162Z,10.52
2023-05-19T04:36:28.164Z,10.55
2023-05-19T04:37:28.129Z,10.61
2023-05-19T04:38:28.170Z,10.64
2023-05-19T04:39:28.140Z,10.64
2023-05-19T04:40:28.095Z,10.61
2023-05-19T04:41:28.083Z,10.66
2023-05-19T04:42:28.067Z,10.70
2023-05-19T04:43:28.117Z,10.67
2023-05-19T04:44:28.071Z,10.71
2023-05-19T04:45:28.062Z,10.76
2023-05-19T04:46:28.041Z,10.76
2023-05-19T04:47:28.334Z,10.76
2023-05-19T04:48:27.999Z,10.78
2023-05-19T04:49:28.010Z,10.81
2023-05-19T04:50:28.040Z,10.84
2023-05-19T04:51:29.745Z,10.86
2023-05-19T04:52:27.984Z,10.88
2023-05-19T04:53:27.980Z,10.91
2023-05-19T04:54:27.943Z,10.92
2023-05-19T04:55:27.929Z,10.94
2023-05-19T04:56:27.954Z,10.94
2023-05-19T04:57:27.899Z,10.94
2023-05-19T04:58:27.920Z,10.92
2023-05-19T04:59:27.883Z,10.94
2023-05-19T05:00:27.907Z,10.94
2023-05-19T05:01:28.042Z,10.91
2023-05-19T05:02:27.880Z,10.89
2023-05-19T05:03:27.897Z,10.92
2023-05-19T05:04:27.812Z,10.92
2023-05-19T05:05:27.850Z,10.97
2023-05-19T05:06:27.829Z,11.02
2023-05-19T05:07:28.558Z,11.04
2023-05-19T05:08:27.790Z,11.09
2023-05-19T05:09:27.793Z,11.14
2023-05-19T05:10:27.739Z,11.14
2023-05-19T05:11:27.729Z,11.18
2023-05-19T05:12:27.776Z,11.21
2023-05-19T05:13:27.726Z,11.24
2023-05-19T05:14:27.741Z,11.25
2023-05-19T05:15:27.676Z,11.29
2023-05-19T05:16:27.740Z,11.32
2023-05-19T05:17:27.765Z,11.36
2023-05-19T05:18:27.720Z,11.40
2023-05-19T05:19:27.667Z,11.46
2023-05-19T05:20:27.632Z,11.51
2023-05-19T05:21:27.624Z,11.57
2023-05-19T05:22:27.603Z,11.60
2023-05-19T05:23:27.647Z,11.62
2023-05-19T05:24:27.579Z,11.65
2023-05-19T05:25:27.638Z,11.70
2023-05-19T05:26:27.559Z,11.73
2023-05-19T05:27:27.565Z,11.79
2023-05-19T05:28:27.528Z,11.83
2023-05-19T05:29:27.552Z,11.86
2023-05-19T05:30:27.514Z,11.88
2023-05-19T05:31:27.534Z,11.94
2023-05-19T05:32:27.556Z,11.99
2023-05-19T05:33:27.691Z,12.05
2023-05-19T05:34:27.502Z,12.12
2023-05-19T05:35:27.446Z,12.17
2023-05-19T05:36:27.493Z,12.20
2023-05-19T05:37:27.433Z,12.31
2023-05-19T05:38:27.448Z,12.39
2023-05-19T05:39:27.409Z,12.46
2023-05-19T05:40:27.403Z,12.53
2023-05-19T05:41:27.409Z,12.62
2023-05-19T05:42:29.635Z,12.72
2023-05-19T05:43:27.367Z,12.77
2023-05-19T05:44:27.365Z,12.85
2023-05-19T05:45:27.365Z,12.90
2023-05-19T05:46:27.456Z,13.00
2023-05-19T05:47:27.331Z,13.10
2023-05-19T05:48:27.324Z,13.19
2023-05-19T05:49:27.280Z,13.20
2023-05-19T05:50:27.290Z,13.23
2023-05-19T05:51:27.287Z,13.23
2023-05-19T05:52:27.268Z,13.33
2023-05-19T05:53:27.270Z,13.45
2023-05-19T05:54:27.250Z,13.60
2023-05-19T05:55:27.223Z,13.66
2023-05-19T05:56:27.209Z,13.73
2023-05-19T05:57:27.204Z,13.81
2023-05-19T05:58:27.211Z,13.91
2023-05-19T05:59:27.223Z,14.02
2023-05-19T06:00:27.169Z,14.09
2023-05-19T06:01:27.161Z,14.15
2023-05-19T06:02:27.245Z,14.27
2023-05-19T06:03:27.305Z,14.45
2023-05-19T06:04:27.173Z,14.64
2023-05-19T06:05:27.169Z,14.84
2023-05-19T06:06:27.127Z,14.99
2023-05-19T06:07:27.111Z,15.10
2023-05-19T06:08:27.091Z,15.14
2023-05-19T06:09:27.052Z,15.20
2023-05-19T06:10:27.099Z,15.23
2023-05-19T06:11:27.044Z,15.35
2023-05-19T06:12:27.076Z,15.43
2023-05-19T06:13:27.016Z,15.69
2023-05-19T06:14:26.990Z,15.84
2023-05-19T06:15:27.052Z,15.87
2023-05-19T06:16:27.028Z,15.92
2023-05-19T06:17:27.042Z,15.87
2023-05-19T06:18:26.978Z,15.93
2023-05-19T06:19:27.007Z,15.97
2023-05-19T06:20:26.930Z,15.90
2023-05-19T06:21:26.969Z,15.94
2023-05-19T06:22:26.901Z,16.04
2023-05-19T06:23:26.894Z,16.21
2023-05-19T06:24:26.925Z,16.31
2023-05-19T06:25:26.904Z,16.34
2023-05-19T06:26:26.876Z,16.45
2023-05-19T06:27:26.872Z,16.41
2023-05-19T06:28:26.837Z,16.57
2023-05-19T06:29:26.846Z,16.68
2023-05-19T06:30:26.858Z,16.82
2023-05-19T06:31:26.866Z,16.96
2023-05-19T06:32:26.828Z,17.14
2023-05-19T06:33:29.003Z,17.21
2023-05-19T06:34:26.791Z,17.22
2023-05-19T06:35:26.784Z,17.21
2023-05-19T06:36:26.769Z,17.31
2023-05-19T06:37:26.770Z,17.70
2023-05-19T06:38:26.732Z,18.60
2023-05-19T06:39:26.731Z,19.51
2023-05-19T06:40:26.736Z,21.14
2023-05-19T06:41:26.720Z,22.21
2023-05-19T06:42:26.689Z,23.23
2023-05-19T06:43:26.714Z,23.73
2023-05-19T06:44:26.654Z,24.20
2023-05-19T06:45:26.656Z,24.57
2023-05-19T06:46:26.705Z,24.49
2023-05-19T06:47:26.635Z,24.65
2023-05-19T06:48:26.646Z,24.87
2023-05-19T06:49:26.592Z,24.50
2023-05-19T06:50:26.573Z,24.42
2023-05-19T06:51:26.592Z,24.32
2023-05-19T06:52:26.585Z,24.49
2023-05-19T06:53:26.611Z,24.55
2023-05-19T06:54:26.558Z,24.53
2023-05-19T06:55:26.568Z,23.98
2023-05-19T06:56:26.543Z,22.92
2023-05-19T06:57:26.512Z,22.14
2023-05-19T06:58:26.520Z,22.36
2023-05-19T06:59:26.473Z,22.77
2023-05-19T07:00:26.508Z,23.01
2023-05-19T07:01:26.682Z,23.33
2023-05-19T07:02:26.490Z,23.63
2023-05-19T07:03:26.542Z,23.70
2023-05-19T07:04:26.426Z,24.08
2023-05-19T07:05:26.417Z,24.20
2023-05-19T07:06:26.479Z,24.42
2023-05-19T07:07:26.394Z,24.95
2023-05-19T07:08:26.414Z,25.65
2023-05-19T07:09:26.399Z,25.92
2023-05-19T07:10:26.451Z,26.52
2023-05-19T07:11:26.440Z,26.72
2023-05-19T07:12:26.358Z,26.95
2023-05-19T07:13:27.462Z,27.12
2023-05-19T07:14:26.349Z,27.22
2023-05-19T07:15:26.301Z,27.37
2023-05-19T07:16:26.331Z,27.43
2023-05-19T07:17:26.390Z,27.77
2023-05-19T07:18:26.285Z,27.78
2023-05-19T07:19:26.377Z,27.50
2023-05-19T07:20:26.335Z,27.25
2023-05-19T07:21:26.237Z,27.22
2023-05-19T07:22:26.288Z,26.80
2023-05-19T07:23:26.220Z,26.33
2023-05-19T07:24:26.241Z,25.36
2023-05-19T07:25:26.211Z,24.98
2023-05-19T07:26:26.179Z,25.13
2023-05-19T07:27:26.189Z,25.33
2023-05-19T07:28:26.184Z,25.46
2023-05-19T07:29:26.179Z,25.40
2023-05-19T07:30:26.200Z,25.24
2023-05-19T07:31:26.233Z,25.23
2023-05-19T07:32:26.196Z,24.60
2023-05-19T07:33:26.107Z,24.10
2023-05-19T07:34:26.100Z,24.09
2023-05-19T07:35:26.093Z,23.90
2023-05-19T07:36:26.085Z,23.94
2023-05-19T07:37:26.061Z,23.87
2023-05-19T07:38:26.056Z,23.73
2023-05-19T07:39:26.088Z,24.09
2023-05-19T07:40:26.056Z,24.62
2023-05-19T07:41:26.090Z,25.42
2023-05-19T07:42:26.030Z,25.67
2023-05-19T07:43:25.995Z,25.58
2023-05-19T07:44:26.008Z,26.07
2023-05-19T07:45:25.977Z,26.44
2023-05-19T07:46:26.161Z,26.35
2023-05-19T07:47:26.067Z,26.43
2023-05-19T07:48:25.985Z,26.57
2023-05-19T07:49:25.917Z,26.72
2023-05-19T07:50:25.939Z,26.87
2023-05-19T07:51:25.896Z,27.04
2023-05-19T07:52:25.898Z,27.13
2023-05-19T07:53:25.902Z,27.12
2023-05-19T07:54:25.909Z,27.17
2023-05-19T07:55:25.865Z,27.40
2023-05-19T07:56:25.864Z,27.44
2023-05-19T07:57:25.889Z,27.40
2023-05-19T07:58:25.853Z,27.13
2023-05-19T07:59:25.811Z,27.03
2023-05-19T08:00:25.806Z,26.54
2023-05-19T08:01:25.814Z,25.72
2023-05-19T08:02:25.923Z,25.20
2023-05-19T08:03:25.953Z,24.95
2023-05-19T08:04:25.814Z,25.38
2023-05-19T08:05:25.781Z,25.50
2023-05-19T08:06:25.765Z,25.05
2023-05-19T08:07:25.747Z,23.93
2023-05-19T08:08:25.751Z,23.17
2023-05-19T08:09:25.729Z,22.00
2023-05-19T08:10:25.723Z,21.46
2023-05-19T08:11:25.702Z,21.44
2023-05-19T08:12:25.676Z,21.67
2023-05-19T08:13:25.666Z,21.03
2023-05-19T08:14:25.677Z,20.50
2023-05-19T08:15:25.744Z,20.08
2023-05-19T08:16:25.730Z,19.80
2023-05-19T08:17:25.667Z,19.56
2023-05-19T08:18:25.614Z,19.78
2023-05-19T08:19:25.641Z,19.54
2023-05-19T08:20:25.621Z,19.63
2023-05-19T08:21:25.603Z,19.74
2023-05-19T08:22:25.557Z,20.14
2023-05-19T08:23:25.545Z,20.32
2023-05-19T08:24:25.550Z,20.52
2023-05-19T08:25:25.591Z,20.62
2023-05-19T08:26:25.540Z,21.12
2023-05-19T08:27:25.520Z,21.49
2023-05-19T08:28:25.502Z,21.77
2023-05-19T08:29:25.516Z,21.12
2023-05-19T08:30:25.478Z,20.87
2023-05-19T08:31:25.538Z,21.35
2023-05-19T08:32:25.555Z,21.27
2023-05-19T08:33:25.465Z,21.17
2023-05-19T08:34:25.438Z,20.92
2023-05-19T08:35:25.444Z,21.01
2023-05-19T08:36:25.420Z,20.82
2023-05-19T08:37:25.428Z,20.73
2023-05-19T08:38:25.417Z,20.42
2023-05-19T08:39:25.383Z,20.26
2023-05-19T08:40:25.369Z,20.17
2023-05-19T08:41:25.382Z,20.06
2023-05-19T08:42:25.337Z,19.78
2023-05-19T08:43:25.368Z,19.61
2023-05-19T08:44:25.329Z,19.54
2023-05-19T08:45:25.337Z,19.59
2023-05-19T08:46:25.394Z,19.95
2023-05-19T08:47:25.346Z,20.20
2023-05-19T08:48:25.286Z,20.18
2023-05-19T08:49:25.776Z,20.33
2023-05-19T08:50:25.299Z,20.89
2023-05-19T08:51:25.299Z,21.22
2023-05-19T08:52:25.256Z,21.56
2023-05-19T08:54:26.218Z,22.17
2023-05-19T08:55:25.190Z,22.18
2023-05-19T08:56:25.242Z,22.22
2023-05-19T08:57:25.189Z,21.59
2023-05-19T08:58:26.701Z,20.99
2023-05-19T08:59:25.146Z,21.38
2023-05-19T09:00:25.150Z,21.86
2023-05-19T09:01:25.256Z,22.30
2023-05-19T09:02:25.175Z,22.27
2023-05-19T09:03:25.167Z,22.49
2023-05-19T09:04:26.019Z,22.97
2023-05-19T09:05:25.107Z,23.01
2023-05-19T09:06:25.076Z,22.95
2023-05-19T09:07:25.088Z,23.57
2023-05-19T09:08:25.089Z,24.37
2023-05-19T09:09:25.056Z,24.47
2023-05-19T09:10:26.055Z,25.10
2023-05-19T09:11:25.041Z,25.83
2023-05-19T09:12:25.024Z,26.32
2023-05-19T09:13:25.047Z,26.52
2023-05-19T09:14:25.020Z,26.92
2023-05-19T09:15:25.009Z,27.07
2023-05-19T09:16:27.637Z,27.07
2023-05-19T09:17:24.976Z,26.94
2023-05-19T09:18:24.958Z,26.72
2023-05-19T09:19:25.049Z,27.04
2023-05-19T09:20:24.931Z,27.46
2023-05-19T09:21:24.909Z,27.02
2023-05-19T09:22:24.893Z,26.82
2023-05-19T09:23:24.910Z,27.31
2023-05-19T09:24:24.891Z,26.84
2023-05-19T09:25:24.880Z,27.31
2023-05-19T09:26:24.901Z,27.57
2023-05-19T09:27:24.837Z,27.96
2023-05-19T09:28:24.890Z,28.19
2023-05-19T09:29:24.814Z,27.12
2023-05-19T09:30:24.810Z,25.69
2023-05-19T09:31:24.814Z,25.95
2023-05-19T09:32:25.011Z,26.17
2023-05-19T09:33:24.826Z,26.77
2023-05-19T09:34:24.787Z,26.30
2023-05-19T09:35:24.779Z,26.23
2023-05-19T09:36:24.783Z,25.70
2023-05-19T09:37:24.769Z,24.50
2023-05-19T09:38:24.763Z,24.02
2023-05-19T09:39:24.720Z,23.54
2023-05-19T09:40:24.723Z,23.02
2023-05-19T09:41:24.705Z,21.65
2023-05-19T09:42:24.757Z,21.03
2023-05-19T09:43:24.681Z,21.35
2023-05-19T09:44:24.692Z,22.18
2023-05-19T09:45:24.662Z,22.73
2023-05-19T09:46:24.701Z,22.79
2023-05-19T09:47:24.698Z,23.46
2023-05-19T09:48:24.631Z,24.37
2023-05-19T09:49:24.622Z,24.87
2023-05-19T09:50:24.605Z,25.32
2023-05-19T09:51:24.619Z,25.32
2023-05-19T09:52:24.628Z,24.68
2023-05-19T09:53:24.595Z,24.73
2023-05-19T09:54:24.584Z,23.61
2023-05-19T09:55:24.576Z,23.22
2023-05-19T09:56:24.541Z,23.84
2023-05-19T09:57:24.558Z,24.67
2023-05-19T09:58:24.542Z,25.50
2023-05-19T09:59:24.555Z,25.64
2023-05-19T10:00:24.495Z,25.73
2023-05-19T10:01:24.518Z,25.61
2023-05-19T10:02:24.492Z,25.25
2023-05-19T10:03:24.477Z,24.42
2023-05-19T10:04:24.470Z,23.69
2023-05-19T10:05:24.502Z,22.35
2023-05-19T10:06:24.441Z,22.07
2023-05-19T10:07:24.433Z,22.15
2023-05-19T10:08:24.462Z,21.98
2023-05-19T10:09:24.417Z,22.09
2023-05-19T10:10:24.412Z,22.17
2023-05-19T10:11:24.393Z,22.20
2023-05-19T10:12:24.414Z,22.57
2023-05-19T10:13:24.356Z,22.58
2023-05-19T10:14:24.404Z,22.39
2023-05-19T10:15:24.347Z,22.20
2023-05-19T10:16:24.358Z,22.46
2023-05-19T10:17:24.477Z,22.37
2023-05-19T10:18:24.332Z,22.51
2023-05-19T10:19:24.368Z,22.77
2023-05-19T10:20:24.296Z,22.80
2023-05-19T10:21:24.290Z,22.97
2023-05-19T10:22:24.253Z,23.27
2023-05-19T10:23:24.267Z,23.36
2023-05-19T10:24:24.258Z,23.35
2023-05-19T10:25:24.252Z,23.40
2023-05-19T10:26:24.216Z,23.53
2023-05-19T10:27:24.200Z,23.66
2023-05-19T10:28:24.228Z,23.63
2023-05-19T10:29:24.173Z,23.55
2023-05-19T10:30:24.201Z,23.53
2023-05-19T10:31:24.170Z,22.95
2023-05-19T10:32:24.192Z,22.49
2023-05-19T10:33:24.160Z,22.54
2023-05-19T10:34:24.179Z,23.10
2023-05-19T10:35:24.139Z,23.69
2023-05-19T10:36:24.102Z,24.15
2023-05-19T10:37:24.102Z,24.13
2023-05-19T10:38:24.127Z,24.39
2023-05-19T10:39:24.108Z,24.00
2023-05-19T10:40:24.128Z,24.10
2023-05-19T10:41:24.065Z,24.21
2023-05-19T10:42:24.053Z,24.68
2023-05-19T10:43:24.048Z,24.85
2023-05-19T10:44:24.014Z,24.95
2023-05-19T10:45:24.024Z,24.95
2023-05-19T10:46:24.027Z,24.65
2023-05-19T10:47:24.020Z,24.62
2023-05-19T10:48:24.014Z,24.58
2023-05-19T10:49:23.983Z,23.93
2023-05-19T10:50:23.974Z,22.86
2023-05-19T10:51:23.950Z,23.13
2023-05-19T10:52:24.005Z,23.39
2023-05-19T10:53:23.949Z,23.25
2023-05-19T10:54:23.912Z,23.02
2023-05-19T10:55:23.922Z,23.53
2023-05-19T10:56:23.886Z,23.69
2023-05-19T10:57:23.920Z,23.85
2023-05-19T10:58:23.910Z,23.79
2023-05-19T10:59:23.865Z,23.69
2023-05-19T11:00:23.860Z,23.88
2023-05-19T11:01:23.888Z,24.10
2023-05-19T11:02:23.918Z,24.34
2023-05-19T11:03:24.551Z,23.83
2023-05-19T11:04:23.847Z,23.80
2023-05-19T11:05:23.801Z,24.09
2023-05-19T11:06:23.801Z,24.42
2023-05-19T11:07:23.788Z,25.02
2023-05-19T11:08:23.824Z,25.39
2023-05-19T11:09:34.160Z,25.35
2023-05-19T11:10:24.742Z,25.25
2023-05-19T11:11:23.772Z,24.77
2023-05-19T11:12:24.744Z,24.15
2023-05-19T11:13:23.719Z,23.61
2023-05-19T11:14:23.704Z,23.40
2023-05-19T11:15:23.682Z,22.75
2023-05-19T11:16:23.770Z,22.42
2023-05-19T11:17:23.810Z,22.79
2023-05-19T11:18:23.761Z,23.36
2023-05-19T11:19:23.783Z,24.00
2023-05-19T11:20:23.640Z,24.55
2023-05-19T11:21:23.702Z,24.16
2023-05-19T11:22:23.629Z,23.60
2023-05-19T11:23:23.609Z,23.40
2023-05-19T11:24:23.633Z,23.57
2023-05-19T11:25:23.589Z,23.36
2023-05-19T11:26:23.581Z,22.46
2023-05-19T11:27:23.622Z,22.05
2023-05-19T11:28:23.554Z,22.21
2023-05-19T11:29:23.549Z,22.30
2023-05-19T11:30:23.553Z,22.02
2023-05-19T11:31:23.583Z,21.79
2023-05-19T11:32:23.564Z,21.79
2023-05-19T11:33:23.519Z,21.65
2023-05-19T11:34:23.483Z,21.29
2023-05-19T11:35:23.476Z,20.73
2023-05-19T11:36:23.484Z,20.33
2023-05-19T11:37:23.467Z,20.51
2023-05-19T11:38:23.505Z,20.47
2023-05-19T11:39:23.428Z,21.09
2023-05-19T11:40:23.452Z,21.24
2023-05-19T11:41:23.433Z,21.04
2023-05-19T11:42:23.413Z,21.31
2023-05-19T11:43:23.427Z,21.25
2023-05-19T11:44:23.409Z,21.34
2023-05-19T11:45:23.372Z,21.77
2023-05-19T11:46:23.422Z,22.28
2023-05-19T11:47:23.388Z,22.70
2023-05-19T11:48:23.380Z,22.65
2023-05-19T11:49:23.335Z,22.42
2023-05-19T11:50:23.319Z,22.60
2023-05-19T11:51:23.312Z,22.43
2023-05-19T11:52:23.327Z,22.31
2023-05-19T11:53:23.298Z,22.39
2023-05-19T11:54:23.302Z,22.36
2023-05-19T11:55:23.297Z,22.07
2023-05-19T11:56:23.290Z,21.79
2023-05-19T11:57:23.283Z,21.86
2023-05-19T11:58:23.211Z,21.99
2023-05-19T11:59:23.236Z,21.90
2023-05-19T12:00:23.189Z,21.83
2023-05-19T12:01:23.242Z,21.42
2023-05-19T12:02:23.206Z,21.10
2023-05-19T12:03:23.255Z,20.67
2023-05-19T12:04:23.163Z,20.70
2023-05-19T12:05:23.279Z,20.99
2023-05-19T12:06:23.230Z,21.16
2023-05-19T12:07:23.113Z,20.98
2023-05-19T12:08:23.114Z,20.67
2023-05-19T12:09:23.135Z,20.58
2023-05-19T12:10:23.085Z,20.54
2023-05-19T12:11:23.176Z,20.28
2023-05-19T12:12:23.088Z,20.03
2023-05-19T12:13:23.057Z,19.77
2023-05-19T12:14:23.032Z,19.81
2023-05-19T12:15:23.056Z,19.99
2023-05-19T12:16:23.071Z,19.99
2023-05-19T12:17:23.024Z,20.02
2023-05-19T12:18:23.014Z,20.14
2023-05-19T12:19:23.115Z,20.36
2023-05-19T12:20:22.991Z,20.51
2023-05-19T12:21:22.974Z,20.33
2023-05-19T12:22:22.966Z,20.06
2023-05-19T12:23:22.965Z,20.02
2023-05-19T12:24:22.924Z,19.92
2023-05-19T12:25:22.957Z,19.95
2023-05-19T12:26:22.911Z,20.01
2023-05-19T12:27:22.910Z,20.02
2023-05-19T12:28:22.961Z,19.95
2023-05-19T12:29:22.884Z,19.98
2023-05-19T12:30:22.870Z,20.08
2023-05-19T12:31:22.927Z,20.14
2023-05-19T12:32:22.873Z,19.83
2023-05-19T12:33:22.902Z,19.77
2023-05-19T12:34:22.821Z,19.80
2023-05-19T12:35:22.825Z,19.86
2023-05-19T12:36:22.840Z,20.03
2023-05-19T12:37:22.831Z,20.23
2023-05-19T12:38:22.831Z,20.21
2023-05-19T12:39:22.781Z,20.26
2023-05-19T12:40:22.770Z,20.16
2023-05-19T12:41:22.749Z,20.18
2023-05-19T12:42:22.713Z,20.18
2023-05-19T12:43:22.726Z,20.21
2023-05-19T12:44:22.738Z,20.33
2023-05-19T12:45:22.699Z,20.06
2023-05-19T12:46:22.973Z,20.01
2023-05-19T12:47:22.713Z,20.01
2023-05-19T12:48:22.684Z,20.13
2023-05-19T12:49:22.661Z,20.06
2023-05-19T12:50:22.693Z,19.92
2023-05-19T12:51:22.653Z,19.77
2023-05-19T12:52:22.595Z,19.74
2023-05-19T12:53:22.620Z,19.74
2023-05-19T12:54:22.672Z,19.81
2023-05-19T12:55:22.593Z,19.88
2023-05-19T12:56:22.581Z,19.99
2023-05-19T12:57:22.545Z,20.03
2023-05-19T12:58:22.565Z,19.78